sensor_id;sensor_type;location;lat;lon;timestamp;temperature;humidity
10089;DHT22;51898;49.864;8.550;2024-02-16T00:01:14;10.90;89.00
10089;DHT22;51898;49.864;8.550;2024-02-16T00:04:16;10.90;89.10
10089;DHT22;51898;49.864;8.550;2024-02-16T00:07:17;10.80;89.10
10089;DHT22;51898;49.864;8.550;2024-02-16T00:10:19;10.90;88.90
10089;DHT22;51898;49.864;8.550;2024-02-16T00:13:23;10.90;88.80
10089;DHT22;51898;49.864;8.550;2024-02-16T00:16:24;10.90;88.70
10089;DHT22;51898;49.864;8.550;2024-02-16T00:19:26;10.90;88.60
10089;DHT22;51898;49.864;8.550;2024-02-16T00:22:29;10.90;88.50
10089;DHT22;51898;49.864;8.550;2024-02-16T00:25:31;10.90;88.50
10089;DHT22;51898;49.864;8.550;2024-02-16T00:28:33;10.90;88.40
10089;DHT22;51898;49.864;8.550;2024-02-16T00:31:35;10.90;88.30
10089;DHT22;51898;49.864;8.550;2024-02-16T00:34:37;11.00;88.30
10089;DHT22;51898;49.864;8.550;2024-02-16T00:37:40;11.00;88.20
10089;DHT22;51898;49.864;8.550;2024-02-16T00:40:42;11.00;88.00
10089;DHT22;51898;49.864;8.550;2024-02-16T00:43:45;10.80;88.60
10089;DHT22;51898;49.864;8.550;2024-02-16T00:46:47;10.90;88.20
10089;DHT22;51898;49.864;8.550;2024-02-16T00:49:49;10.90;88.30
10089;DHT22;51898;49.864;8.550;2024-02-16T00:52:51;10.90;88.30
10089;DHT22;51898;49.864;8.550;2024-02-16T00:55:53;10.90;88.30
10089;DHT22;51898;49.864;8.550;2024-02-16T00:58:55;10.90;88.30
10089;DHT22;51898;49.864;8.550;2024-02-16T01:01:56;10.90;88.30
10089;DHT22;51898;49.864;8.550;2024-02-16T01:04:58;10.90;88.20
10089;DHT22;51898;49.864;8.550;2024-02-16T01:08:04;10.90;88.10
10089;DHT22;51898;49.864;8.550;2024-02-16T01:11:06;10.90;87.90
10089;DHT22;51898;49.864;8.550;2024-02-16T01:14:08;10.90;87.80
10089;DHT22;51898;49.864;8.550;2024-02-16T01:17:10;10.90;87.60
10089;DHT22;51898;49.864;8.550;2024-02-16T01:20:12;11.00;87.50
10089;DHT22;51898;49.864;8.550;2024-02-16T01:23:14;11.00;87.50
10089;DHT22;51898;49.864;8.550;2024-02-16T01:26:16;10.90;87.40
10089;DHT22;51898;49.864;8.550;2024-02-16T01:29:17;10.90;87.50
10089;DHT22;51898;49.864;8.550;2024-02-16T01:32:19;10.80;87.70
10089;DHT22;51898;49.864;8.550;2024-02-16T01:35:21;10.80;87.90
10089;DHT22;51898;49.864;8.550;2024-02-16T01:38:23;10.70;88.30
10089;DHT22;51898;49.864;8.550;2024-02-16T01:41:24;10.70;88.40
10089;DHT22;51898;49.864;8.550;2024-02-16T01:44:26;10.60;88.60
10089;DHT22;51898;49.864;8.550;2024-02-16T01:47:28;10.50;89.10
10089;DHT22;51898;49.864;8.550;2024-02-16T01:50:29;10.50;89.20
10089;DHT22;51898;49.864;8.550;2024-02-16T01:53:33;10.40;89.30
10089;DHT22;51898;49.864;8.550;2024-02-16T01:56:35;10.20;90.40
10089;DHT22;51898;49.864;8.550;2024-02-16T01:59:37;10.20;90.30
10089;DHT22;51898;49.864;8.550;2024-02-16T02:02:44;10.20;90.70
10089;DHT22;51898;49.864;8.550;2024-02-16T02:05:46;10.10;91.10
10089;DHT22;51898;49.864;8.550;2024-02-16T02:08:48;10.10;91.30
10089;DHT22;51898;49.864;8.550;2024-02-16T02:11:51;10.10;91.50
10089;DHT22;51898;49.864;8.550;2024-02-16T02:14:56;10.10;91.30
10089;DHT22;51898;49.864;8.550;2024-02-16T02:17:58;9.90;92.00
10089;DHT22;51898;49.864;8.550;2024-02-16T02:21:01;10.00;91.70
10089;DHT22;51898;49.864;8.550;2024-02-16T02:24:03;10.00;91.60
10089;DHT22;51898;49.864;8.550;2024-02-16T02:27:05;10.00;91.50
10089;DHT22;51898;49.864;8.550;2024-02-16T02:30:07;10.00;91.30
10089;DHT22;51898;49.864;8.550;2024-02-16T02:33:09;10.10;91.10
10089;DHT22;51898;49.864;8.550;2024-02-16T02:36:13;10.10;91.00
10089;DHT22;51898;49.864;8.550;2024-02-16T02:39:14;10.10;90.80
10089;DHT22;51898;49.864;8.550;2024-02-16T02:42:16;10.10;90.60
10089;DHT22;51898;49.864;8.550;2024-02-16T02:45:18;10.20;90.60
10089;DHT22;51898;49.864;8.550;2024-02-16T02:48:20;10.20;90.50
10089;DHT22;51898;49.864;8.550;2024-02-16T02:51:21;10.20;90.30
10089;DHT22;51898;49.864;8.550;2024-02-16T02:54:23;10.30;90.20
10089;DHT22;51898;49.864;8.550;2024-02-16T02:57:25;10.30;90.00
10089;DHT22;51898;49.864;8.550;2024-02-16T03:00:27;10.30;89.90
10089;DHT22;51898;49.864;8.550;2024-02-16T03:03:28;10.30;89.80
10089;DHT22;51898;49.864;8.550;2024-02-16T03:06:31;10.40;89.60
10089;DHT22;51898;49.864;8.550;2024-02-16T03:09:33;10.40;89.50
10089;DHT22;51898;49.864;8.550;2024-02-16T03:12:35;10.40;89.30
10089;DHT22;51898;49.864;8.550;2024-02-16T03:15:37;10.40;89.20
10089;DHT22;51898;49.864;8.550;2024-02-16T03:18:39;10.40;89.10
10089;DHT22;51898;49.864;8.550;2024-02-16T03:21:41;10.40;89.10
10089;DHT22;51898;49.864;8.550;2024-02-16T03:24:42;10.40;89.00
10089;DHT22;51898;49.864;8.550;2024-02-16T03:27:46;10.40;88.80
10089;DHT22;51898;49.864;8.550;2024-02-16T03:30:48;10.30;88.70
10089;DHT22;51898;49.864;8.550;2024-02-16T03:33:51;10.30;88.70
10089;DHT22;51898;49.864;8.550;2024-02-16T03:36:53;10.30;88.90
10089;DHT22;51898;49.864;8.550;2024-02-16T03:39:55;10.40;89.10
10089;DHT22;51898;49.864;8.550;2024-02-16T03:42:58;10.40;89.20
10089;DHT22;51898;49.864;8.550;2024-02-16T03:45:59;10.30;89.50
10089;DHT22;51898;49.864;8.550;2024-02-16T03:49:01;10.40;89.40
10089;DHT22;51898;49.864;8.550;2024-02-16T03:52:04;10.40;89.30
10089;DHT22;51898;49.864;8.550;2024-02-16T03:55:06;10.40;89.50
10089;DHT22;51898;49.864;8.550;2024-02-16T03:58:08;10.40;89.40
10089;DHT22;51898;49.864;8.550;2024-02-16T04:01:09;10.40;89.30
10089;DHT22;51898;49.864;8.550;2024-02-16T04:04:11;10.40;89.40
10089;DHT22;51898;49.864;8.550;2024-02-16T04:07:13;10.40;89.40
10089;DHT22;51898;49.864;8.550;2024-02-16T04:10:15;10.40;89.40
10089;DHT22;51898;49.864;8.550;2024-02-16T04:13:17;10.40;89.50
10089;DHT22;51898;49.864;8.550;2024-02-16T04:16:19;10.40;89.40
10089;DHT22;51898;49.864;8.550;2024-02-16T04:19:28;10.40;89.50
10089;DHT22;51898;49.864;8.550;2024-02-16T04:22:30;10.40;89.60
10089;DHT22;51898;49.864;8.550;2024-02-16T04:25:38;10.40;89.70
10089;DHT22;51898;49.864;8.550;2024-02-16T04:28:40;10.40;89.80
10089;DHT22;51898;49.864;8.550;2024-02-16T04:31:42;10.40;89.80
10089;DHT22;51898;49.864;8.550;2024-02-16T04:34:46;10.40;89.70
10089;DHT22;51898;49.864;8.550;2024-02-16T04:37:48;10.40;89.80
10089;DHT22;51898;49.864;8.550;2024-02-16T04:40:51;10.40;89.80
10089;DHT22;51898;49.864;8.550;2024-02-16T04:43:52;10.50;89.60
10089;DHT22;51898;49.864;8.550;2024-02-16T04:46:54;10.50;89.50
10089;DHT22;51898;49.864;8.550;2024-02-16T04:49:56;10.50;89.50
10089;DHT22;51898;49.864;8.550;2024-02-16T04:52:58;10.50;89.40
10089;DHT22;51898;49.864;8.550;2024-02-16T04:56:00;10.50;89.30
10089;DHT22;51898;49.864;8.550;2024-02-16T04:59:03;10.60;89.30
10089;DHT22;51898;49.864;8.550;2024-02-16T05:02:05;10.60;89.20
10089;DHT22;51898;49.864;8.550;2024-02-16T05:05:08;10.60;89.20
10089;DHT22;51898;49.864;8.550;2024-02-16T05:08:10;10.60;89.20
10089;DHT22;51898;49.864;8.550;2024-02-16T05:11:12;10.60;89.20
10089;DHT22;51898;49.864;8.550;2024-02-16T05:14:14;10.60;89.20
10089;DHT22;51898;49.864;8.550;2024-02-16T05:17:15;10.70;89.20
10089;DHT22;51898;49.864;8.550;2024-02-16T05:20:18;10.70;89.20
10089;DHT22;51898;49.864;8.550;2024-02-16T05:23:21;10.70;89.20
10089;DHT22;51898;49.864;8.550;2024-02-16T05:26:23;10.70;89.20
10089;DHT22;51898;49.864;8.550;2024-02-16T05:29:25;10.60;89.20
10089;DHT22;51898;49.864;8.550;2024-02-16T05:32:28;10.70;89.20
10089;DHT22;51898;49.864;8.550;2024-02-16T05:35:30;10.70;89.10
10089;DHT22;51898;49.864;8.550;2024-02-16T05:38:35;10.70;89.20
10089;DHT22;51898;49.864;8.550;2024-02-16T05:41:43;10.70;89.30
10089;DHT22;51898;49.864;8.550;2024-02-16T05:44:45;10.70;89.20
10089;DHT22;51898;49.864;8.550;2024-02-16T05:47:47;10.70;89.20
10089;DHT22;51898;49.864;8.550;2024-02-16T05:50:49;10.70;89.10
10089;DHT22;51898;49.864;8.550;2024-02-16T05:53:51;10.70;89.10
10089;DHT22;51898;49.864;8.550;2024-02-16T05:56:53;10.70;88.90
10089;DHT22;51898;49.864;8.550;2024-02-16T05:59:55;10.70;88.80
10089;DHT22;51898;49.864;8.550;2024-02-16T06:02:59;10.70;88.70
10089;DHT22;51898;49.864;8.550;2024-02-16T06:06:01;10.70;88.70
10089;DHT22;51898;49.864;8.550;2024-02-16T06:09:03;10.70;88.70
10089;DHT22;51898;49.864;8.550;2024-02-16T06:12:08;10.60;88.60
10089;DHT22;51898;49.864;8.550;2024-02-16T06:15:11;10.60;88.60
10089;DHT22;51898;49.864;8.550;2024-02-16T06:18:12;10.60;88.70
10089;DHT22;51898;49.864;8.550;2024-02-16T06:21:14;10.60;88.60
10089;DHT22;51898;49.864;8.550;2024-02-16T06:24:17;10.50;88.60
10089;DHT22;51898;49.864;8.550;2024-02-16T06:27:20;10.50;88.90
10089;DHT22;51898;49.864;8.550;2024-02-16T06:30:22;10.50;88.80
10089;DHT22;51898;49.864;8.550;2024-02-16T06:33:24;10.50;89.00
10089;DHT22;51898;49.864;8.550;2024-02-16T06:36:25;10.40;89.00
10089;DHT22;51898;49.864;8.550;2024-02-16T06:39:27;10.40;89.10
10089;DHT22;51898;49.864;8.550;2024-02-16T06:42:31;10.40;89.10
10089;DHT22;51898;49.864;8.550;2024-02-16T06:45:35;10.40;89.10
10089;DHT22;51898;49.864;8.550;2024-02-16T06:48:38;10.30;89.20
10089;DHT22;51898;49.864;8.550;2024-02-16T06:51:40;10.40;89.10
10089;DHT22;51898;49.864;8.550;2024-02-16T06:54:41;10.40;88.80
10089;DHT22;51898;49.864;8.550;2024-02-16T06:57:43;10.40;88.60
10089;DHT22;51898;49.864;8.550;2024-02-16T07:00:46;10.50;88.20
10089;DHT22;51898;49.864;8.550;2024-02-16T07:03:48;10.50;87.90
10089;DHT22;51898;49.864;8.550;2024-02-16T07:06:50;10.60;87.60
10089;DHT22;51898;49.864;8.550;2024-02-16T07:09:52;10.60;87.40
10089;DHT22;51898;49.864;8.550;2024-02-16T07:12:54;10.70;87.10
10089;DHT22;51898;49.864;8.550;2024-02-16T07:15:55;10.70;86.50
10089;DHT22;51898;49.864;8.550;2024-02-16T07:18:57;10.80;86.10
10089;DHT22;51898;49.864;8.550;2024-02-16T07:21:59;10.80;85.80
10089;DHT22;51898;49.864;8.550;2024-02-16T07:25:01;10.90;85.50
10089;DHT22;51898;49.864;8.550;2024-02-16T07:28:03;10.90;85.00
10089;DHT22;51898;49.864;8.550;2024-02-16T07:31:06;11.00;84.80
10089;DHT22;51898;49.864;8.550;2024-02-16T07:34:07;11.00;84.70
10089;DHT22;51898;49.864;8.550;2024-02-16T07:37:09;11.10;84.40
10089;DHT22;51898;49.864;8.550;2024-02-16T07:40:11;11.20;84.30
10089;DHT22;51898;49.864;8.550;2024-02-16T07:43:13;11.20;84.00
10089;DHT22;51898;49.864;8.550;2024-02-16T07:46:15;11.30;83.60
10089;DHT22;51898;49.864;8.550;2024-02-16T07:49:16;11.40;83.40
10089;DHT22;51898;49.864;8.550;2024-02-16T07:52:18;11.40;83.30
10089;DHT22;51898;49.864;8.550;2024-02-16T07:55:20;11.50;83.20
10089;DHT22;51898;49.864;8.550;2024-02-16T07:58:24;11.60;83.00
10089;DHT22;51898;49.864;8.550;2024-02-16T08:01:25;11.50;82.90
10089;DHT22;51898;49.864;8.550;2024-02-16T08:04:28;11.60;82.70
10089;DHT22;51898;49.864;8.550;2024-02-16T08:07:29;11.60;82.50
10089;DHT22;51898;49.864;8.550;2024-02-16T08:10:32;11.70;82.10
10089;DHT22;51898;49.864;8.550;2024-02-16T08:13:34;11.80;81.90
10089;DHT22;51898;49.864;8.550;2024-02-16T08:16:35;11.80;81.70
10089;DHT22;51898;49.864;8.550;2024-02-16T08:19:38;11.80;81.60
10089;DHT22;51898;49.864;8.550;2024-02-16T08:22:40;11.90;81.40
10089;DHT22;51898;49.864;8.550;2024-02-16T08:25:42;12.00;81.30
10089;DHT22;51898;49.864;8.550;2024-02-16T08:28:44;12.00;81.20
10089;DHT22;51898;49.864;8.550;2024-02-16T08:31:50;12.10;81.30
10089;DHT22;51898;49.864;8.550;2024-02-16T08:34:53;12.20;81.00
10089;DHT22;51898;49.864;8.550;2024-02-16T08:37:55;12.30;81.10
10089;DHT22;51898;49.864;8.550;2024-02-16T08:40:56;12.40;80.90
10089;DHT22;51898;49.864;8.550;2024-02-16T08:43:58;12.50;80.50
10089;DHT22;51898;49.864;8.550;2024-02-16T08:47:00;12.60;80.40
10089;DHT22;51898;49.864;8.550;2024-02-16T08:50:02;12.60;80.00
10089;DHT22;51898;49.864;8.550;2024-02-16T08:53:04;12.70;80.00
10089;DHT22;51898;49.864;8.550;2024-02-16T08:56:10;12.70;80.30
10089;DHT22;51898;49.864;8.550;2024-02-16T08:59:13;12.70;81.00
10089;DHT22;51898;49.864;8.550;2024-02-16T09:02:14;12.70;81.70
10089;DHT22;51898;49.864;8.550;2024-02-16T09:05:16;12.70;81.40
10089;DHT22;51898;49.864;8.550;2024-02-16T09:08:20;12.70;81.20
10089;DHT22;51898;49.864;8.550;2024-02-16T09:11:22;12.70;80.70
10089;DHT22;51898;49.864;8.550;2024-02-16T09:14:24;12.80;80.80
10089;DHT22;51898;49.864;8.550;2024-02-16T09:17:26;12.90;80.60
10089;DHT22;51898;49.864;8.550;2024-02-16T09:20:28;13.00;80.10
10089;DHT22;51898;49.864;8.550;2024-02-16T09:23:31;13.10;79.60
10089;DHT22;51898;49.864;8.550;2024-02-16T09:26:33;13.20;80.00
10089;DHT22;51898;49.864;8.550;2024-02-16T09:29:35;13.30;80.10
10089;DHT22;51898;49.864;8.550;2024-02-16T09:32:40;13.40;79.20
10089;DHT22;51898;49.864;8.550;2024-02-16T09:35:43;13.50;79.00
10089;DHT22;51898;49.864;8.550;2024-02-16T09:38:45;13.70;78.30
10089;DHT22;51898;49.864;8.550;2024-02-16T09:41:50;13.70;78.30
10089;DHT22;51898;49.864;8.550;2024-02-16T09:44:55;13.80;77.60
10089;DHT22;51898;49.864;8.550;2024-02-16T09:47:57;13.90;77.20
10089;DHT22;51898;49.864;8.550;2024-02-16T09:51:08;14.00;77.70
10089;DHT22;51898;49.864;8.550;2024-02-16T09:54:10;14.00;76.70
10089;DHT22;51898;49.864;8.550;2024-02-16T09:57:16;14.00;76.70
10089;DHT22;51898;49.864;8.550;2024-02-16T10:00:19;14.10;76.70
10089;DHT22;51898;49.864;8.550;2024-02-16T10:03:22;14.10;76.30
10089;DHT22;51898;49.864;8.550;2024-02-16T10:06:24;14.10;75.90
10089;DHT22;51898;49.864;8.550;2024-02-16T10:09:28;14.10;75.90
10089;DHT22;51898;49.864;8.550;2024-02-16T10:12:34;14.10;75.90
10089;DHT22;51898;49.864;8.550;2024-02-16T10:15:35;14.10;75.90
10089;DHT22;51898;49.864;8.550;2024-02-16T10:18:38;14.10;75.70
10089;DHT22;51898;49.864;8.550;2024-02-16T10:21:40;14.20;75.40
10089;DHT22;51898;49.864;8.550;2024-02-16T10:24:42;14.20;75.20
10089;DHT22;51898;49.864;8.550;2024-02-16T10:27:47;14.30;75.10
10089;DHT22;51898;49.864;8.550;2024-02-16T10:30:49;14.40;75.20
10089;DHT22;51898;49.864;8.550;2024-02-16T10:33:51;14.50;74.60
10089;DHT22;51898;49.864;8.550;2024-02-16T10:36:55;14.80;73.80
10089;DHT22;51898;49.864;8.550;2024-02-16T10:39:59;14.80;73.70
10089;DHT22;51898;49.864;8.550;2024-02-16T10:43:04;15.00;73.40
10089;DHT22;51898;49.864;8.550;2024-02-16T10:46:07;15.20;72.50
10089;DHT22;51898;49.864;8.550;2024-02-16T10:49:12;15.30;71.50
10089;DHT22;51898;49.864;8.550;2024-02-16T10:52:16;15.40;70.70
10089;DHT22;51898;49.864;8.550;2024-02-16T10:55:19;15.40;70.20
10089;DHT22;51898;49.864;8.550;2024-02-16T10:58:21;15.40;70.60
10089;DHT22;51898;49.864;8.550;2024-02-16T11:01:23;15.50;70.60
10089;DHT22;51898;49.864;8.550;2024-02-16T11:04:25;15.50;70.60
10089;DHT22;51898;49.864;8.550;2024-02-16T11:07:37;15.50;70.90
10089;DHT22;51898;49.864;8.550;2024-02-16T11:10:39;15.60;70.40
10089;DHT22;51898;49.864;8.550;2024-02-16T11:13:42;15.60;70.60
10089;DHT22;51898;49.864;8.550;2024-02-16T11:16:47;15.70;70.60
10089;DHT22;51898;49.864;8.550;2024-02-16T11:19:50;15.80;70.70
10089;DHT22;51898;49.864;8.550;2024-02-16T11:22:52;15.90;70.30
10089;DHT22;51898;49.864;8.550;2024-02-16T11:29:03;16.20;70.00
10089;DHT22;51898;49.864;8.550;2024-02-16T11:32:06;16.30;69.50
10089;DHT22;51898;49.864;8.550;2024-02-16T11:35:07;16.30;69.20
10089;DHT22;51898;49.864;8.550;2024-02-16T11:38:10;16.20;68.70
10089;DHT22;51898;49.864;8.550;2024-02-16T11:41:11;16.10;69.40
10089;DHT22;51898;49.864;8.550;2024-02-16T11:44:14;15.90;69.00
10089;DHT22;51898;49.864;8.550;2024-02-16T11:47:22;15.90;69.50
10089;DHT22;51898;49.864;8.550;2024-02-16T11:50:30;15.90;69.50
10089;DHT22;51898;49.864;8.550;2024-02-16T11:53:32;15.90;69.40
10089;DHT22;51898;49.864;8.550;2024-02-16T11:56:35;15.80;69.60
10089;DHT22;51898;49.864;8.550;2024-02-16T11:59:37;15.80;69.50
10089;DHT22;51898;49.864;8.550;2024-02-16T12:02:38;15.90;70.00
10089;DHT22;51898;49.864;8.550;2024-02-16T12:05:52;16.00;70.80
10089;DHT22;51898;49.864;8.550;2024-02-16T12:08:54;16.10;70.70
10089;DHT22;51898;49.864;8.550;2024-02-16T12:11:56;16.10;70.30
10089;DHT22;51898;49.864;8.550;2024-02-16T12:14:58;16.20;70.70
10089;DHT22;51898;49.864;8.550;2024-02-16T12:18:01;16.30;69.80
10089;DHT22;51898;49.864;8.550;2024-02-16T12:21:05;16.70;68.80
10089;DHT22;51898;49.864;8.550;2024-02-16T12:24:11;16.90;67.30
10089;DHT22;51898;49.864;8.550;2024-02-16T12:27:12;17.20;66.80
10089;DHT22;51898;49.864;8.550;2024-02-16T12:30:14;17.30;66.00
10089;DHT22;51898;49.864;8.550;2024-02-16T12:33:17;17.30;65.50
10089;DHT22;51898;49.864;8.550;2024-02-16T12:36:20;17.40;65.90
10089;DHT22;51898;49.864;8.550;2024-02-16T12:39:22;17.40;66.20
10089;DHT22;51898;49.864;8.550;2024-02-16T12:42:23;17.60;66.40
10089;DHT22;51898;49.864;8.550;2024-02-16T12:45:25;17.80;64.90
10089;DHT22;51898;49.864;8.550;2024-02-16T12:48:28;17.80;65.00
10089;DHT22;51898;49.864;8.550;2024-02-16T12:51:30;17.80;64.60
10089;DHT22;51898;49.864;8.550;2024-02-16T12:54:32;17.80;64.70
10089;DHT22;51898;49.864;8.550;2024-02-16T12:57:35;17.80;66.70
10089;DHT22;51898;49.864;8.550;2024-02-16T13:00:36;17.80;65.90
10089;DHT22;51898;49.864;8.550;2024-02-16T13:03:38;17.80;66.50
10089;DHT22;51898;49.864;8.550;2024-02-16T13:06:41;17.80;67.50
10089;DHT22;51898;49.864;8.550;2024-02-16T13:09:43;17.60;66.30
10089;DHT22;51898;49.864;8.550;2024-02-16T13:12:45;17.50;66.10
10089;DHT22;51898;49.864;8.550;2024-02-16T13:15:47;17.30;66.60
10089;DHT22;51898;49.864;8.550;2024-02-16T13:18:49;17.20;67.40
10089;DHT22;51898;49.864;8.550;2024-02-16T13:21:51;17.10;68.40
10089;DHT22;51898;49.864;8.550;2024-02-16T13:24:54;17.20;67.70
10089;DHT22;51898;49.864;8.550;2024-02-16T13:27:56;17.30;68.20
10089;DHT22;51898;49.864;8.550;2024-02-16T13:30:57;17.20;67.60
10089;DHT22;51898;49.864;8.550;2024-02-16T13:34:00;17.10;67.90
10089;DHT22;51898;49.864;8.550;2024-02-16T13:37:02;17.00;68.20
10089;DHT22;51898;49.864;8.550;2024-02-16T13:40:04;16.90;68.00
10089;DHT22;51898;49.864;8.550;2024-02-16T13:43:09;16.90;68.30
10089;DHT22;51898;49.864;8.550;2024-02-16T13:46:10;16.80;69.10
10089;DHT22;51898;49.864;8.550;2024-02-16T13:49:12;16.90;69.50
10089;DHT22;51898;49.864;8.550;2024-02-16T13:52:14;16.90;69.90
10089;DHT22;51898;49.864;8.550;2024-02-16T13:55:16;16.90;69.20
10089;DHT22;51898;49.864;8.550;2024-02-16T13:58:17;17.00;68.90
10089;DHT22;51898;49.864;8.550;2024-02-16T14:01:19;17.00;68.70
10089;DHT22;51898;49.864;8.550;2024-02-16T14:04:21;16.90;69.20
10089;DHT22;51898;49.864;8.550;2024-02-16T14:07:24;16.80;69.10
10089;DHT22;51898;49.864;8.550;2024-02-16T14:10:26;16.70;69.50
10089;DHT22;51898;49.864;8.550;2024-02-16T14:13:27;16.60;70.20
10089;DHT22;51898;49.864;8.550;2024-02-16T14:16:30;16.50;69.70
10089;DHT22;51898;49.864;8.550;2024-02-16T14:19:32;16.40;70.30
10089;DHT22;51898;49.864;8.550;2024-02-16T14:22:36;16.30;70.60
10089;DHT22;51898;49.864;8.550;2024-02-16T14:25:38;16.20;71.10
10089;DHT22;51898;49.864;8.550;2024-02-16T14:28:41;16.10;71.90
10089;DHT22;51898;49.864;8.550;2024-02-16T14:31:43;16.00;71.90
10089;DHT22;51898;49.864;8.550;2024-02-16T14:34:45;15.90;72.20
10089;DHT22;51898;49.864;8.550;2024-02-16T14:37:47;15.90;73.30
10089;DHT22;51898;49.864;8.550;2024-02-16T14:40:49;15.80;73.00
10089;DHT22;51898;49.864;8.550;2024-02-16T14:43:50;15.80;73.50
10089;DHT22;51898;49.864;8.550;2024-02-16T14:46:52;15.80;73.30
10089;DHT22;51898;49.864;8.550;2024-02-16T14:49:54;15.80;74.10
10089;DHT22;51898;49.864;8.550;2024-02-16T14:52:56;15.80;73.80
10089;DHT22;51898;49.864;8.550;2024-02-16T14:55:58;15.80;73.90
10089;DHT22;51898;49.864;8.550;2024-02-16T14:59:00;15.80;73.70
10089;DHT22;51898;49.864;8.550;2024-02-16T15:02:01;15.70;74.00
10089;DHT22;51898;49.864;8.550;2024-02-16T15:05:05;15.60;74.60
10089;DHT22;51898;49.864;8.550;2024-02-16T15:08:07;15.60;74.60
10089;DHT22;51898;49.864;8.550;2024-02-16T15:11:10;15.50;75.40
10089;DHT22;51898;49.864;8.550;2024-02-16T15:14:12;15.50;75.90
10089;DHT22;51898;49.864;8.550;2024-02-16T15:17:19;15.40;76.30
10089;DHT22;51898;49.864;8.550;2024-02-16T15:20:21;15.30;76.80
10089;DHT22;51898;49.864;8.550;2024-02-16T15:23:25;15.20;77.00
10089;DHT22;51898;49.864;8.550;2024-02-16T15:26:26;15.20;77.20
10089;DHT22;51898;49.864;8.550;2024-02-16T15:29:28;15.10;77.90
10089;DHT22;51898;49.864;8.550;2024-02-16T15:32:32;15.00;78.30
10089;DHT22;51898;49.864;8.550;2024-02-16T15:35:36;15.00;78.60
10089;DHT22;51898;49.864;8.550;2024-02-16T15:38:38;14.90;79.50
10089;DHT22;51898;49.864;8.550;2024-02-16T15:41:39;14.90;80.60
10089;DHT22;51898;49.864;8.550;2024-02-16T15:44:42;14.80;80.70
10089;DHT22;51898;49.864;8.550;2024-02-16T15:47:43;14.70;81.00
10089;DHT22;51898;49.864;8.550;2024-02-16T15:50:45;14.60;81.50
10089;DHT22;51898;49.864;8.550;2024-02-16T15:53:47;14.50;81.70
10089;DHT22;51898;49.864;8.550;2024-02-16T15:56:48;14.50;81.90
10089;DHT22;51898;49.864;8.550;2024-02-16T15:59:56;14.50;82.10
10089;DHT22;51898;49.864;8.550;2024-02-16T16:02:59;14.40;82.30
10089;DHT22;51898;49.864;8.550;2024-02-16T16:06:02;14.40;82.20
10089;DHT22;51898;49.864;8.550;2024-02-16T16:09:05;14.40;82.40
10089;DHT22;51898;49.864;8.550;2024-02-16T16:12:08;14.40;82.40
10089;DHT22;51898;49.864;8.550;2024-02-16T16:15:10;14.30;83.00
10089;DHT22;51898;49.864;8.550;2024-02-16T16:18:12;14.30;83.50
10089;DHT22;51898;49.864;8.550;2024-02-16T16:21:14;14.30;84.40
10089;DHT22;51898;49.864;8.550;2024-02-16T16:24:16;14.20;85.00
10089;DHT22;51898;49.864;8.550;2024-02-16T16:27:18;14.20;85.80
10089;DHT22;51898;49.864;8.550;2024-02-16T16:30:20;14.10;86.50
10089;DHT22;51898;49.864;8.550;2024-02-16T16:33:22;14.00;87.10
10089;DHT22;51898;49.864;8.550;2024-02-16T16:36:24;13.80;88.20
10089;DHT22;51898;49.864;8.550;2024-02-16T16:39:28;13.80;88.70
10089;DHT22;51898;49.864;8.550;2024-02-16T16:42:30;13.70;89.50
10089;DHT22;51898;49.864;8.550;2024-02-16T16:45:34;13.60;89.90
10089;DHT22;51898;49.864;8.550;2024-02-16T16:48:36;13.50;90.30
10089;DHT22;51898;49.864;8.550;2024-02-16T16:51:38;13.50;90.70
10089;DHT22;51898;49.864;8.550;2024-02-16T16:54:40;13.40;91.10
10089;DHT22;51898;49.864;8.550;2024-02-16T16:57:42;13.30;91.40
10089;DHT22;51898;49.864;8.550;2024-02-16T17:00:44;13.30;91.60
10089;DHT22;51898;49.864;8.550;2024-02-16T17:03:45;13.30;91.80
10089;DHT22;51898;49.864;8.550;2024-02-16T17:06:48;13.30;92.00
10089;DHT22;51898;49.864;8.550;2024-02-16T17:09:50;13.30;92.10
10089;DHT22;51898;49.864;8.550;2024-02-16T17:12:55;13.20;92.30
10089;DHT22;51898;49.864;8.550;2024-02-16T17:15:57;13.20;92.40
10089;DHT22;51898;49.864;8.550;2024-02-16T17:19:00;13.20;92.60
10089;DHT22;51898;49.864;8.550;2024-02-16T17:22:02;13.20;92.80
10089;DHT22;51898;49.864;8.550;2024-02-16T17:25:07;13.20;93.20
10089;DHT22;51898;49.864;8.550;2024-02-16T17:28:09;13.20;93.40
10089;DHT22;51898;49.864;8.550;2024-02-16T17:31:11;13.10;93.60
10089;DHT22;51898;49.864;8.550;2024-02-16T17:34:13;13.10;93.90
10089;DHT22;51898;49.864;8.550;2024-02-16T17:37:15;13.10;94.10
10089;DHT22;51898;49.864;8.550;2024-02-16T17:40:17;13.10;94.50
10089;DHT22;51898;49.864;8.550;2024-02-16T17:43:19;13.10;94.70
10089;DHT22;51898;49.864;8.550;2024-02-16T17:46:24;13.10;94.80
10089;DHT22;51898;49.864;8.550;2024-02-16T17:49:25;13.10;95.10
10089;DHT22;51898;49.864;8.550;2024-02-16T17:52:29;13.10;95.40
10089;DHT22;51898;49.864;8.550;2024-02-16T17:55:31;13.10;95.80
10089;DHT22;51898;49.864;8.550;2024-02-16T17:58:33;13.00;96.30
10089;DHT22;51898;49.864;8.550;2024-02-16T18:01:35;13.00;96.60
10089;DHT22;51898;49.864;8.550;2024-02-16T18:04:38;13.00;96.80
10089;DHT22;51898;49.864;8.550;2024-02-16T18:07:40;12.90;97.20
10089;DHT22;51898;49.864;8.550;2024-02-16T18:10:42;13.00;97.40
10089;DHT22;51898;49.864;8.550;2024-02-16T18:13:44;12.90;97.70
10089;DHT22;51898;49.864;8.550;2024-02-16T18:16:45;12.90;98.00
10089;DHT22;51898;49.864;8.550;2024-02-16T18:19:47;12.90;98.30
10089;DHT22;51898;49.864;8.550;2024-02-16T18:22:49;12.80;98.70
10089;DHT22;51898;49.864;8.550;2024-02-16T18:25:51;12.80;99.00
10089;DHT22;51898;49.864;8.550;2024-02-16T18:28:53;12.70;99.20
10089;DHT22;51898;49.864;8.550;2024-02-16T18:31:55;12.70;99.40
10089;DHT22;51898;49.864;8.550;2024-02-16T18:34:56;12.70;99.90
10089;DHT22;51898;49.864;8.550;2024-02-16T18:37:59;12.60;100.00
10089;DHT22;51898;49.864;8.550;2024-02-16T18:41:01;12.60;100.00
10089;DHT22;51898;49.864;8.550;2024-02-16T18:44:03;12.60;100.00
10089;DHT22;51898;49.864;8.550;2024-02-16T18:47:05;12.60;100.00
10089;DHT22;51898;49.864;8.550;2024-02-16T18:50:07;12.60;100.00
10089;DHT22;51898;49.864;8.550;2024-02-16T18:53:09;12.50;100.00
10089;DHT22;51898;49.864;8.550;2024-02-16T18:56:11;12.50;100.00
10089;DHT22;51898;49.864;8.550;2024-02-16T18:59:12;12.50;100.00
10089;DHT22;51898;49.864;8.550;2024-02-16T19:02:21;12.50;100.00
10089;DHT22;51898;49.864;8.550;2024-02-16T19:05:24;12.40;100.00
10089;DHT22;51898;49.864;8.550;2024-02-16T19:08:26;12.40;100.00
10089;DHT22;51898;49.864;8.550;2024-02-16T19:11:28;12.40;100.00
10089;DHT22;51898;49.864;8.550;2024-02-16T19:14:30;12.40;100.00